Time;durP1;ratioP1;P1;durP2;ratioP2;P2;SDS_P1;SDS_P2;PMS_P1;PMS_P2;Temp;Humidity;BMP_temperature;BMP_pressure;BME280_temperature;BME280_humidity;BME280_pressure;Samples;Min_cycle;Max_cycle;Signal;HPM_P1;HPM_P2
2023/01/03 00:00:09;;;;;;;10.25;4.38;;;;;;;7.87;69.92;102641.81;5008571;28;20414;-41
2023/01/03 00:02:35;;;;;;;8.93;4.20;;;;;;;7.87;70.44;102639.22;5006583;28;20072;-42
2023/01/03 00:05:00;;;;;;;7.97;3.80;;;;;;;7.94;70.42;102633.50;5010441;28;20030;-41
2023/01/03 00:07:35;;;;;;;9.13;4.00;;;;;;;7.99;70.55;102637.25;5005588;28;20072;-42
2023/01/03 00:10:05;;;;;;;9.07;3.97;;;;;;;7.93;70.65;102631.75;5008039;28;20104;-41
2023/01/03 00:12:31;;;;;;;10.55;3.95;;;;;;;7.93;70.43;102640.41;5006583;28;20030;-41
2023/01/03 00:14:57;;;;;;;9.77;3.90;;;;;;;7.89;70.36;102632.38;5011962;28;20044;-41
2023/01/03 00:17:23;;;;;;;8.10;4.00;;;;;;;7.99;70.06;102635.50;5008657;28;20367;-41
2023/01/03 00:19:49;;;;;;;8.57;4.00;;;;;;;8.00;69.98;102639.00;5011164;28;20509;-41
2023/01/03 00:22:15;;;;;;;8.60;4.28;;;;;;;8.01;69.58;102639.09;5008332;28;20068;-41
2023/01/03 00:24:43;;;;;;;7.68;4.40;;;;;;;7.94;69.92;102643.88;5012776;28;20033;-41
2023/01/03 00:27:08;;;;;;;8.40;4.07;;;;;;;7.97;69.14;102644.06;5011812;28;20038;-43
2023/01/03 00:29:35;;;;;;;8.70;4.22;;;;;;;7.92;69.21;102649.03;5009506;28;20040;-41
2023/01/03 00:32:00;;;;;;;9.45;4.40;;;;;;;7.90;68.91;102648.03;5013146;28;20121;-41
2023/01/03 00:34:26;;;;;;;7.10;4.57;;;;;;;7.89;69.08;102647.94;5010157;28;20072;-41
2023/01/03 00:36:52;;;;;;;10.85;4.63;;;;;;;7.84;69.07;102646.81;5013185;28;20042;-42
2023/01/03 00:39:17;;;;;;;8.73;5.05;;;;;;;7.79;69.22;102649.19;5007232;28;20042;-41
2023/01/03 00:41:43;;;;;;;8.70;4.82;;;;;;;7.77;69.58;102650.78;5005798;28;20026;-43
2023/01/03 00:44:09;;;;;;;9.38;5.10;;;;;;;7.74;69.31;102646.31;5004288;28;20359;-39
2023/01/03 00:46:35;;;;;;;10.00;4.82;;;;;;;7.73;69.10;102656.66;5004462;28;20554;-41
2023/01/03 00:49:01;;;;;;;9.00;5.07;;;;;;;7.72;69.07;102650.56;5006346;28;20026;-42
2023/01/03 00:51:29;;;;;;;8.43;4.85;;;;;;;7.69;69.03;102652.97;5003566;28;20490;-41
2023/01/03 00:53:56;;;;;;;8.98;4.82;;;;;;;7.68;69.33;102648.59;5007247;28;20140;-41
2023/01/03 00:56:26;;;;;;;8.52;5.25;;;;;;;7.68;69.72;102656.38;5001682;28;20034;-41
2023/01/03 00:58:52;;;;;;;11.23;5.30;;;;;;;7.71;69.96;102653.97;5005363;28;20041;-40
2023/01/03 01:01:17;;;;;;;9.50;5.43;;;;;;;7.78;69.77;102655.19;5002222;28;20088;-41
2023/01/03 01:03:46;;;;;;;10.32;5.28;;;;;;;7.84;69.97;102652.00;5005567;28;20058;-41
2023/01/03 01:06:17;;;;;;;9.20;5.03;;;;;;;7.86;70.09;102650.41;5000681;28;20506;-41
2023/01/03 01:08:43;;;;;;;11.13;5.22;;;;;;;7.85;69.89;102654.69;5004942;28;20120;-41
2023/01/03 01:11:10;;;;;;;13.45;5.50;;;;;;;7.86;70.02;102651.28;5001593;28;20040;-42
2023/01/03 01:13:36;;;;;;;11.05;5.38;;;;;;;7.91;69.85;102648.94;5004467;28;20041;-41
2023/01/03 01:16:08;;;;;;;12.35;5.25;;;;;;;7.87;70.13;102657.38;5004285;28;20049;-41
2023/01/03 01:18:34;;;;;;;9.27;5.00;;;;;;;7.94;69.81;102649.97;5000918;28;20044;-41
2023/01/03 01:21:03;;;;;;;10.77;5.13;;;;;;;7.91;70.03;102652.44;5003737;28;20559;-41
2023/01/03 01:23:28;;;;;;;9.88;4.97;;;;;;;7.91;69.89;102648.94;5000457;28;20151;-40
2023/01/03 01:25:54;;;;;;;11.10;5.15;;;;;;;7.86;70.15;102653.00;5004041;28;20538;-41
2023/01/03 01:28:19;;;;;;;9.95;4.95;;;;;;;7.89;70.26;102655.75;5000572;28;20036;-40
2023/01/03 01:30:44;;;;;;;7.97;4.30;;;;;;;7.94;69.77;102664.66;5004110;28;20092;-42
2023/01/03 01:33:09;;;;;;;7.60;4.75;;;;;;;7.88;69.60;102665.22;5000288;28;20099;-39
2023/01/03 01:35:35;;;;;;;11.68;4.78;;;;;;;7.95;69.75;102659.56;5004424;28;20033;-41
2023/01/03 01:38:00;;;;;;;10.15;5.25;;;;;;;7.96;69.94;102665.66;5004661;28;20125;-41
2023/01/03 01:40:26;;;;;;;10.93;4.95;;;;;;;8.06;70.16;102668.78;4999913;28;20034;-40
2023/01/03 01:45:36;;;;;;;10.95;5.20;;;;;;;8.23;70.32;102668.78;5001756;28;20041;-41
2023/01/03 01:48:09;;;;;;;10.57;5.43;;;;;;;8.29;70.49;102667.41;5007349;28;20121;-41
2023/01/03 01:50:42;;;;;;;8.20;5.32;;;;;;;8.32;70.44;102669.28;5000205;28;20030;-41
2023/01/03 01:53:13;;;;;;;13.88;5.68;;;;;;;8.28;70.34;102676.00;5004612;28;20395;-41
2023/01/03 01:55:44;;;;;;;10.88;5.53;;;;;;;8.30;70.02;102671.78;5000683;28;20026;-43
2023/01/03 01:58:11;;;;;;;12.23;5.68;;;;;;;8.29;70.04;102679.50;5001345;28;20034;-49
2023/01/03 02:00:38;;;;;;;11.13;5.80;;;;;;;8.25;69.77;102680.13;5007167;28;20088;-49
2023/01/03 02:03:04;;;;;;;12.10;6.03;;;;;;;8.22;69.51;102685.19;5007478;28;20114;-42
2023/01/03 02:05:31;;;;;;;10.77;6.03;;;;;;;8.15;69.59;102689.19;5005721;28;20057;-41
2023/01/03 02:07:57;;;;;;;14.10;5.68;;;;;;;8.07;69.62;102683.56;5007834;28;20398;-40
2023/01/03 02:10:50;;;;;;;12.32;6.47;;;;;;;7.99;69.74;102689.19;5003401;28;20038;-41
2023/01/03 02:13:31;;;;;;;13.50;6.45;;;;;;;7.97;69.61;102690.81;5001422;28;20097;-40
2023/01/03 02:16:03;;;;;;;11.38;6.20;;;;;;;7.92;69.70;102687.09;5006958;28;20041;-42
2023/01/03 02:18:41;;;;;;;11.48;5.82;;;;;;;7.88;69.34;102686.00;5006406;28;20069;-41
2023/01/03 02:21:25;;;;;;;9.98;6.10;;;;;;;7.81;69.33;102675.25;5009943;28;20037;-41
2023/01/03 02:24:05;;;;;;;12.88;6.40;;;;;;;7.77;69.31;102675.88;5006604;28;20094;-41
2023/01/03 02:26:49;;;;;;;13.23;6.70;;;;;;;7.72;69.21;102673.94;5006935;28;20038;-41
2023/01/03 02:29:37;;;;;;;12.40;6.55;;;;;;;7.68;69.54;102673.69;5003411;28;20391;-41
2023/01/03 02:32:10;;;;;;;13.88;6.63;;;;;;;7.67;69.66;102671.91;5003910;28;20041;-42
2023/01/03 02:34:59;;;;;;;11.93;6.85;;;;;;;7.65;69.41;102676.09;5003529;28;20034;-41
2023/01/03 02:37:34;;;;;;;11.68;6.45;;;;;;;7.60;69.71;102670.69;5005083;28;20044;-41
2023/01/03 02:40:08;;;;;;;14.68;6.80;;;;;;;7.54;69.24;102666.84;5008240;28;20347;-42
2023/01/03 02:42:59;;;;;;;10.93;6.47;;;;;;;7.46;69.17;102668.13;5002703;28;20048;-41
2023/01/03 02:46:01;;;;;;;13.52;6.75;;;;;;;7.45;69.18;102671.53;5001498;28;20626;-42
2023/01/03 02:49:00;;;;;;;15.55;7.63;;;;;;;7.43;69.21;102662.78;4999962;28;20061;-42
2023/01/03 02:51:33;;;;;;;15.63;7.15;;;;;;;7.42;69.13;102666.19;4994926;28;20038;-42
2023/01/03 02:54:01;;;;;;;14.77;7.00;;;;;;;7.42;69.40;102661.91;5003179;28;20030;-41
2023/01/03 02:56:34;;;;;;;16.70;7.57;;;;;;;7.45;69.72;102661.16;4999536;28;20026;-41
2023/01/03 02:59:08;;;;;;;15.68;8.40;;;;;;;7.48;69.45;102657.03;5003757;28;20046;-41
2023/01/03 03:01:35;;;;;;;19.23;9.00;;;;;;;7.52;69.50;102664.16;4999398;28;20105;-40
2023/01/03 03:04:02;;;;;;;20.63;9.73;;;;;;;7.53;69.84;102665.97;5003659;28;20061;-42
2023/01/03 03:06:43;;;;;;;25.40;10.85;;;;;;;7.58;70.48;102658.41;4999967;28;20038;-41
2023/01/03 03:09:08;;;;;;;20.45;10.30;;;;;;;7.72;70.44;102654.88;5003241;28;20053;-40
2023/01/03 03:14:47;;;;;;;26.05;11.60;;;;;;;7.84;70.59;102667.59;4999574;28;20040;-40
2023/01/03 03:17:18;;;;;;;28.27;12.15;;;;;;;7.91;70.79;102673.19;5022478;22;20050;-41
2023/01/03 03:25:42;;;;;;;23.85;11.23;;;;;;;7.93;71.21;102663.75;5003978;28;20044;-39
2023/01/03 03:31:13;;;;;;;24.95;11.43;;;;;;;7.95;70.35;102651.75;5004313;28;20060;-40
2023/01/03 03:33:48;;;;;;;22.98;10.48;;;;;;;7.94;70.15;102654.28;5007186;28;20034;-41
2023/01/03 03:36:52;;;;;;;24.38;11.35;;;;;;;7.86;70.31;102653.91;5004546;28;20132;-40
2023/01/03 03:45:34;;;;;;;20.98;10.70;;;;;;;7.71;70.39;102638.38;4981936;28;20402;-39
2023/01/03 03:48:12;;;;;;;22.67;11.02;;;;;;;7.72;70.41;102640.19;5004827;28;20053;-41
2023/01/03 03:51:07;;;;;;;26.27;12.10;;;;;;;7.65;71.03;102639.75;5002197;28;20026;-42
2023/01/03 03:53:36;;;;;;;26.75;12.52;;;;;;;7.66;71.12;102642.44;5001950;28;20418;-44
2023/01/03 03:56:08;;;;;;;25.08;12.25;;;;;;;7.70;71.24;102636.59;5006630;28;20435;-42
2023/01/03 03:58:39;;;;;;;26.48;11.90;;;;;;;7.78;70.43;102638.72;5004398;28;20082;-40
2023/01/03 04:01:06;;;;;;;27.75;13.68;;;;;;;7.74;71.26;102646.31;5008649;28;20045;-44
2023/01/03 04:03:33;;;;;;;31.42;13.77;;;;;;;7.73;71.37;102657.53;5002925;28;20121;-40
2023/01/03 04:06:04;;;;;;;30.60;14.95;;;;;;;7.71;72.08;102669.53;5004679;28;20490;-40
2023/01/03 04:08:29;;;;;;;29.25;13.80;;;;;;;7.82;71.23;102661.41;5001973;28;20476;-41
2023/01/03 04:11:04;;;;;;;31.65;14.90;;;;;;;7.77;71.22;102668.97;5005226;28;20060;-45
2023/01/03 04:13:33;;;;;;;28.88;13.63;;;;;;;7.77;71.65;102668.97;5002048;28;20060;-42
2023/01/03 04:15:58;;;;;;;29.27;13.25;;;;;;;7.85;71.19;102664.19;5005729;28;20092;-41
2023/01/03 04:18:24;;;;;;;32.22;14.00;;;;;;;7.80;71.43;102678.66;5001205;28;20042;-41
2023/01/03 04:20:49;;;;;;;29.92;13.90;;;;;;;7.79;71.70;102674.25;5005164;28;20104;-41
2023/01/03 04:23:14;;;;;;;28.40;14.25;;;;;;;7.84;71.24;102670.19;5003075;28;20041;-39
2023/01/03 04:25:40;;;;;;;33.42;14.57;;;;;;;7.81;71.03;102665.72;5004236;28;20057;-40
2023/01/03 04:28:05;;;;;;;29.17;15.13;;;;;;;7.73;71.01;102667.03;5005715;28;20044;-40
2023/01/03 04:30:30;;;;;;;32.42;15.13;;;;;;;7.73;70.72;102667.94;5005705;28;20045;-40
2023/01/03 04:32:56;;;;;;;36.55;15.48;;;;;;;7.72;71.12;102667.84;5010624;28;20125;-42
2023/01/03 04:35:21;;;;;;;30.88;15.15;;;;;;;7.69;70.63;102663.38;5005116;28;20128;-41
2023/01/03 04:37:47;;;;;;;31.67;14.65;;;;;;;7.68;70.70;102653.78;5008075;28;20034;-40
2023/01/03 04:40:12;;;;;;;38.35;16.25;;;;;;;7.63;71.05;102659.53;5002129;28;20034;-42
2023/01/03 04:45:21;;;;;;;29.58;15.65;;;;;;;7.68;71.05;102655.53;5004133;28;20037;-42
2023/01/03 04:47:47;;;;;;;33.30;16.35;;;;;;;7.65;71.20;102658.81;5007554;28;20034;-39
2023/01/03 04:50:12;;;;;;;33.28;16.25;;;;;;;7.67;70.88;102658.91;5003024;28;20509;-40
2023/01/03 04:52:37;;;;;;;34.60;16.42;;;;;;;7.66;71.03;102659.72;5005189;28;20427;-39
2023/01/03 04:55:03;;;;;;;34.97;16.27;;;;;;;7.63;71.00;102662.13;5006288;28;20038;-40
2023/01/03 04:57:28;;;;;;;39.45;17.10;;;;;;;7.61;71.41;102658.59;5002485;28;20042;-41
2023/01/03 04:59:54;;;;;;;40.10;17.65;;;;;;;7.53;71.68;102652.97;5006739;28;20108;-43
2023/01/03 05:02:19;;;;;;;33.10;16.88;;;;;;;7.63;70.97;102660.44;5002988;28;20041;-40
2023/01/03 05:04:44;;;;;;;33.10;16.17;;;;;;;7.61;71.16;102653.41;5006402;28;20030;-43
2023/01/03 05:07:09;;;;;;;35.83;17.25;;;;;;;7.70;70.81;102646.09;5002062;28;20034;-45
2023/01/03 05:09:35;;;;;;;33.53;17.25;;;;;;;7.69;71.29;102647.78;5005852;28;20530;-41
2023/01/03 05:12:00;;;;;;;32.47;16.42;;;;;;;7.68;70.72;102642.53;5005589;28;20387;-41
2023/01/03 05:14:25;;;;;;;38.08;18.60;;;;;;;7.57;71.07;102641.03;5001049;28;20042;-41
2023/01/03 05:16:51;;;;;;;33.40;17.20;;;;;;;7.62;70.47;102643.06;5004958;28;20505;-41
2023/01/03 05:19:16;;;;;;;32.83;17.10;;;;;;;7.60;70.50;102641.22;5002881;28;20046;-42
2023/01/03 05:25:48;;;;;;;36.70;18.73;;;;;;;7.51;71.11;102644.22;5004950;28;20048;-39
2023/01/03 05:27:20;;;;;;;39.45;18.02;;;;;;;7.55;70.82;102647.88;5005021;28;20125;-40
2023/01/03 05:29:50;;;;;;;36.20;19.08;;;;;;;7.56;70.57;102647.06;5009757;28;20057;-41
2023/01/03 05:32:16;;;;;;;35.47;17.88;;;;;;;7.61;71.18;102643.03;5004546;28;20030;-41
2023/01/03 05:34:41;;;;;;;40.67;19.55;;;;;;;7.70;71.48;102641.78;5005770;28;20041;-41
2023/01/03 05:37:06;;;;;;;44.55;21.98;;;;;;;7.80;72.05;102637.09;5004949;28;20332;-40
2023/01/03 05:39:32;;;;;;;43.35;21.20;;;;;;;7.90;72.61;102632.47;5001462;28;20058;-40
2023/01/03 05:42:00;;;;;;;46.17;22.60;;;;;;;7.93;72.49;102635.19;5005303;28;20037;-42
2023/01/03 05:44:30;;;;;;;39.70;21.40;;;;;;;8.19;71.84;102631.34;5001877;28;20498;-40
2023/01/03 05:46:57;;;;;;;41.15;22.25;;;;;;;8.12;72.10;102629.25;5005032;28;20073;-46
2023/01/03 05:49:23;;;;;;;39.05;21.27;;;;;;;8.20;71.42;102621.84;5000717;28;20049;-41
2023/01/03 05:51:48;;;;;;;38.22;20.67;;;;;;;8.30;71.55;102624.09;5003957;28;20402;-43
2023/01/03 05:54:15;;;;;;;40.47;20.92;;;;;;;8.33;71.63;102616.50;5000431;28;20099;-40
2023/01/03 05:56:40;;;;;;;39.67;20.52;;;;;;;8.37;71.79;102621.03;5004932;28;20030;-43
2023/01/03 05:59:08;;;;;;;35.85;19.73;;;;;;;8.48;71.89;102617.25;5004477;28;20553;-41
2023/01/03 06:01:34;;;;;;;37.70;19.63;;;;;;;8.46;71.93;102622.41;5000497;28;20034;-43
2023/01/03 06:03:59;;;;;;;36.05;20.10;;;;;;;8.45;72.35;102619.72;5004853;28;20513;-41
2023/01/03 06:06:25;;;;;;;45.05;21.20;;;;;;;8.26;72.89;102611.78;5001212;28;20063;-44
2023/01/03 06:08:50;;;;;;;38.70;20.60;;;;;;;8.55;71.90;102622.81;5006016;28;20494;-41
2023/01/03 06:11:16;;;;;;;38.78;21.00;;;;;;;8.61;71.96;102621.34;5002118;28;20255;-40
2023/01/03 06:13:42;;;;;;;37.50;20.48;;;;;;;8.60;71.85;102629.97;5004549;28;20033;-43
2023/01/03 06:18:54;;;;;;;34.00;18.75;;;;;;;8.83;71.44;102634.59;5000560;28;20520;-40
2023/01/03 06:21:20;;;;;;;40.45;20.50;;;;;;;8.67;72.14;102627.72;5000549;28;20058;-40
2023/01/03 06:23:48;;;;;;;38.95;19.95;;;;;;;8.74;71.44;102635.03;5003990;28;20026;-40
2023/01/03 06:26:19;;;;;;;41.65;19.65;;;;;;;8.71;71.32;102637.50;4999718;28;20608;-42
2023/01/03 06:28:45;;;;;;;32.83;19.30;;;;;;;8.86;71.42;102642.53;5004468;28;20034;-42
2023/01/03 06:31:10;;;;;;;35.60;19.08;;;;;;;8.86;71.13;102645.13;5003485;28;20500;-46
2023/01/03 06:33:36;;;;;;;35.83;18.83;;;;;;;8.86;71.59;102648.63;5012110;28;20033;-40
2023/01/03 06:36:11;;;;;;;31.00;17.95;;;;;;;8.91;71.19;102638.44;5021557;28;20042;-40
2023/01/03 06:38:36;;;;;;;;;;;;;;;8.98;71.49;102630.09;5004005;28;20030;-39
2023/01/03 06:41:02;;;;;;;36.83;17.88;;;;;;;8.78;72.00;102623.94;5002747;28;20267;-40
2023/01/03 06:43:28;;;;;;;35.60;18.00;;;;;;;8.70;72.60;102617.50;4999972;28;20109;-40
2023/01/03 06:54:09;;;;;;;29.83;15.60;;;;;;;8.79;72.25;102619.63;5002756;28;20100;-40
2023/01/03 06:56:34;;;;;;;27.50;14.65;;;;;;;9.02;71.81;102625.97;4999122;28;20475;-43
2023/01/03 06:59:00;;;;;;;25.20;13.88;;;;;;;9.02;71.63;102625.97;5002799;28;20046;-48
2023/01/03 07:01:25;;;;;;;23.45;13.35;;;;;;;9.20;71.33;102626.81;4998438;28;20053;-39
2023/01/03 07:03:51;;;;;;;23.67;12.82;;;;;;;9.28;71.01;102625.44;5002427;28;20053;-41
2023/01/03 07:06:16;;;;;;;19.42;12.20;;;;;;;9.19;71.59;102625.94;4998723;28;20065;-43
2023/01/03 07:08:41;;;;;;;21.45;11.95;;;;;;;9.29;71.36;102624.63;5002485;28;20304;-39
2023/01/03 07:11:06;;;;;;;25.30;13.20;;;;;;;9.30;71.72;102627.31;5002378;28;20041;-41
2023/01/03 07:16:18;;;;;;;20.90;12.32;;;;;;;9.36;71.40;102630.19;4998589;28;20116;-46
2023/01/03 07:18:44;;;;;;;23.25;11.52;;;;;;;9.37;71.54;102638.91;5002361;28;20058;-40
2023/01/03 07:21:10;;;;;;;22.23;11.70;;;;;;;9.45;71.08;102631.47;4999759;28;20418;-40
2023/01/03 07:23:36;;;;;;;23.00;12.20;;;;;;;9.39;71.00;102626.88;5001300;28;20033;-41
2023/01/03 07:26:01;;;;;;;22.63;11.88;;;;;;;9.45;71.57;102627.16;5002951;28;20034;-46
2023/01/03 07:28:27;;;;;;;19.73;11.40;;;;;;;9.45;71.38;102618.44;4999156;28;20045;-40
2023/01/03 07:30:59;;;;;;;22.88;11.77;;;;;;;9.41;71.25;102620.00;5004632;28;20133;-39
2023/01/03 07:33:24;;;;;;;24.55;12.20;;;;;;;9.34;72.27;102615.31;5000868;28;20045;-41
2023/01/03 07:35:49;;;;;;;19.70;11.25;;;;;;;9.35;72.11;102623.22;5004358;28;20034;-40
2023/01/03 07:38:14;;;;;;;23.45;11.60;;;;;;;9.45;71.43;102623.66;5000340;28;20549;-40
2023/01/03 07:40:40;;;;;;;22.83;12.20;;;;;;;9.14;71.51;102626.53;5006600;28;20116;-45
2023/01/03 07:45:49;;;;;;;21.63;12.35;;;;;;;9.33;72.02;102632.66;5004439;28;20041;-40
2023/01/03 07:48:15;;;;;;;23.05;12.05;;;;;;;9.48;71.46;102634.19;5003233;28;20025;-45
2023/01/03 07:50:41;;;;;;;20.55;11.85;;;;;;;9.54;71.14;102630.16;5004888;28;20490;-40
2023/01/03 07:53:07;;;;;;;22.25;12.30;;;;;;;9.53;71.35;102633.56;5004745;28;20060;-40
2023/01/03 07:55:34;;;;;;;23.17;11.90;;;;;;;9.56;71.30;102636.31;5001643;28;20026;-41
2023/01/03 07:57:59;;;;;;;20.95;12.13;;;;;;;9.61;71.34;102632.22;5004030;28;20030;-42
2023/01/03 08:00:25;;;;;;;19.80;11.63;;;;;;;9.66;71.58;102632.41;4999304;28;20096;-41
2023/01/03 08:02:54;;;;;;;20.83;12.60;;;;;;;9.33;72.35;102630.03;5002718;28;20539;-42
2023/01/03 08:05:21;;;;;;;25.75;12.20;;;;;;;9.58;71.88;102626.84;5000678;28;20092;-40
2023/01/03 08:07:47;;;;;;;23.60;12.75;;;;;;;9.64;71.22;102626.22;5006017;28;20117;-44
2023/01/03 08:13:16;;;;;;;27.95;13.00;;;;;;;9.62;71.48;102630.50;5006877;28;20052;-43
2023/01/03 08:15:48;;;;;;;24.38;12.68;;;;;;;9.71;71.23;102631.78;5003822;28;20042;-45
2023/01/03 08:18:15;;;;;;;23.52;12.38;;;;;;;9.76;72.00;102629.38;5002902;28;20045;-40
2023/01/03 08:20:40;;;;;;;28.27;13.73;;;;;;;9.70;72.01;102637.81;5005440;28;20034;-43
2023/01/03 08:23:06;;;;;;;26.83;13.43;;;;;;;9.84;71.93;102632.34;5006409;28;20045;-41
2023/01/03 08:25:32;;;;;;;29.35;14.13;;;;;;;9.84;72.06;102643.66;5001626;28;20469;-43
2023/01/03 08:27:58;;;;;;;29.63;14.80;;;;;;;9.85;71.93;102649.75;5006156;28;20406;-42
2023/01/03 08:30:23;;;;;;;25.90;14.40;;;;;;;9.98;72.06;102642.56;5007854;28;20038;-41
2023/01/03 08:32:49;;;;;;;28.92;14.98;;;;;;;9.95;72.08;102645.00;5014131;28;20390;-44
2023/01/03 08:35:15;;;;;;;29.92;15.25;;;;;;;9.95;72.14;102644.13;5011224;28;20037;-43
2023/01/03 08:37:43;;;;;;;30.65;16.17;;;;;;;9.65;73.08;102641.03;5010433;28;20037;-43
2023/01/03 08:40:13;;;;;;;34.25;15.50;;;;;;;9.99;72.30;102638.25;5005914;28;20402;-42
2023/01/03 08:42:39;;;;;;;33.05;15.88;;;;;;;9.81;72.49;102629.63;5003716;28;20026;-43
2023/01/03 08:45:10;;;;;;;34.75;15.52;;;;;;;9.99;72.65;102635.63;5006269;28;20045;-41
2023/01/03 08:47:35;;;;;;;32.22;16.05;;;;;;;10.02;71.95;102627.94;5001978;28;20041;-42
2023/01/03 08:50:01;;;;;;;32.08;16.10;;;;;;;10.05;72.14;102628.97;5007033;28;20033;-43
2023/01/03 08:52:26;;;;;;;28.88;15.60;;;;;;;10.00;72.92;102627.84;5005380;28;20420;-40
2023/01/03 08:54:51;;;;;;;30.40;15.98;;;;;;;10.18;72.61;102626.94;5009790;28;20030;-41
2023/01/03 08:57:17;;;;;;;31.15;15.80;;;;;;;10.10;72.61;102624.84;5005370;28;20042;-39
2023/01/03 08:59:42;;;;;;;34.25;16.75;;;;;;;10.18;72.10;102629.53;5005051;28;20172;-47
2023/01/03 09:02:07;;;;;;;33.78;16.05;;;;;;;10.25;71.86;102623.72;5004224;28;20042;-40
2023/01/03 09:04:33;;;;;;;35.60;16.80;;;;;;;10.34;72.02;102622.44;5001256;28;20030;-41
2023/01/03 09:06:58;;;;;;;28.50;15.82;;;;;;;10.41;71.84;102624.47;5003417;28;20117;-41
2023/01/03 09:09:23;;;;;;;37.92;16.40;;;;;;;10.40;71.47;102622.69;5000657;28;20038;-41
2023/01/03 09:11:49;;;;;;;30.63;15.95;;;;;;;10.48;71.43;102623.91;5004626;28;20037;-41
2023/01/03 09:14:14;;;;;;;28.70;15.48;;;;;;;10.44;71.86;102624.56;4999151;28;20049;-44
2023/01/03 09:16:39;;;;;;;29.83;16.35;;;;;;;10.36;71.84;102625.09;5020163;22;20082;-40
2023/01/03 09:19:05;;;;;;;29.85;15.82;;;;;;;10.56;71.51;102616.38;5005208;28;20124;-41
2023/01/03 09:21:30;;;;;;;27.25;15.55;;;;;;;10.50;71.27;102618.72;5000029;28;20095;-41
2023/01/03 09:23:57;;;;;;;33.25;16.20;;;;;;;10.49;71.78;102619.56;5005508;28;20584;-40
2023/01/03 09:26:22;;;;;;;31.67;16.85;;;;;;;10.53;71.36;102622.38;4980419;28;20117;-40
2023/01/03 09:28:48;;;;;;;33.97;16.95;;;;;;;10.49;72.02;102630.88;4984097;28;20122;-40
2023/01/03 09:31:13;;;;;;;33.38;16.75;;;;;;;10.47;72.53;102626.44;4981588;28;20486;-41
2023/01/03 09:33:38;;;;;;;30.50;16.98;;;;;;;10.57;72.20;102620.75;4986627;28;20576;-41
2023/01/03 09:36:04;;;;;;;30.52;16.92;;;;;;;10.74;71.43;102621.44;4986623;28;20049;-40
2023/01/03 09:38:29;;;;;;;28.48;16.05;;;;;;;10.92;71.21;102611.75;4982557;28;20129;-40
2023/01/03 09:40:59;;;;;;;31.05;16.48;;;;;;;10.81;71.29;102621.75;4983060;28;20038;-43
2023/01/03 09:43:31;;;;;;;33.45;16.17;;;;;;;10.84;71.42;102619.28;4980958;28;20863;-41
2023/01/03 09:46:00;;;;;;;33.17;17.05;;;;;;;10.68;71.40;102629.91;4984742;28;20026;-40
2023/01/03 09:48:33;;;;;;;32.50;16.15;;;;;;;11.01;70.88;102630.38;4981128;28;20499;-40
2023/01/03 09:50:59;;;;;;;31.67;16.63;;;;;;;10.85;71.83;102634.13;4984541;28;20100;-42
2023/01/03 10:05:48;;;;;;;27.75;15.18;;;;;;;11.27;70.89;102649.69;4981484;28;20041;-41
2023/01/03 10:08:28;;;;;;;29.48;15.35;;;;;;;11.13;71.30;102646.53;4973498;28;20125;-42
2023/01/03 10:11:05;;;;;;;34.63;16.23;;;;;;;10.96;71.51;102642.38;4987555;28;20038;-41
2023/01/03 10:13:49;;;;;;;29.35;15.40;;;;;;;11.19;70.75;102646.75;4985003;28;20069;-41
2023/01/03 10:16:30;;;;;;;25.20;15.18;;;;;;;11.37;70.42;102644.88;4985080;28;20042;-41
2023/01/03 10:18:55;;;;;;;28.33;15.02;;;;;;;11.04;71.35;102638.31;4987584;28;20041;-41
2023/01/03 10:21:56;;;;;;;27.50;15.32;;;;;;;11.25;71.27;102640.88;4982276;28;20046;-41
2023/01/03 10:24:24;;;;;;;29.77;14.90;;;;;;;11.15;71.55;102649.22;4981422;28;20528;-41
2023/01/03 10:26:54;;;;;;;26.35;14.57;;;;;;;11.18;71.08;102644.09;4984621;28;20443;-41
2023/01/03 10:29:20;;;;;;;31.00;15.20;;;;;;;11.06;71.93;102649.72;4979731;28;20045;-41
2023/01/03 10:32:27;;;;;;;27.27;14.02;;;;;;;11.19;71.36;102654.59;4984351;28;20113;-42
2023/01/03 10:35:14;;;;;;;25.17;14.02;;;;;;;10.99;72.17;102651.19;4974930;28;20038;-41
2023/01/03 10:37:40;;;;;;;30.60;14.85;;;;;;;10.95;72.65;102654.53;4980451;28;20736;-42
2023/01/03 10:40:06;;;;;;;33.33;14.80;;;;;;;10.98;72.16;102652.03;4983544;28;20411;-41
2023/01/03 10:42:34;;;;;;;29.52;15.00;;;;;;;11.09;71.80;102656.78;4980371;28;20034;-42
2023/01/03 10:45:09;;;;;;;27.00;14.55;;;;;;;11.30;71.78;102662.84;4983742;28;20046;-40
2023/01/03 10:47:34;;;;;;;29.00;14.90;;;;;;;11.24;71.48;102649.53;4980654;28;20436;-40
2023/01/03 10:50:01;;;;;;;30.15;15.00;;;;;;;11.33;71.78;102653.41;4984161;28;20038;-41
2023/01/03 10:52:33;;;;;;;25.60;14.50;;;;;;;11.46;71.65;102649.56;4979812;28;20061;-40
2023/01/03 10:55:01;;;;;;;29.60;15.38;;;;;;;10.90;72.02;102648.22;4983549;28;20074;-42
2023/01/03 10:57:47;;;;;;;26.58;14.77;;;;;;;11.44;71.70;102645.09;4980047;28;20027;-41
2023/01/03 11:00:20;;;;;;;26.55;15.65;;;;;;;11.41;71.60;102638.03;4980489;28;20052;-40
2023/01/03 11:02:46;;;;;;;27.00;14.30;;;;;;;11.10;71.77;102635.94;4984771;28;20030;-41
2023/01/03 11:05:17;;;;;;;30.80;15.15;;;;;;;11.33;71.12;102629.03;4981261;28;20549;-41
2023/01/03 11:07:46;;;;;;;26.50;14.65;;;;;;;11.62;70.71;102625.78;4986338;28;20507;-41
2023/01/03 11:10:17;;;;;;;26.88;13.95;;;;;;;11.78;70.69;102622.03;4983966;28;20042;-41
2023/01/03 11:12:43;;;;;;;24.10;13.98;;;;;;;11.67;70.28;102621.59;4987196;28;20073;-40
2023/01/03 11:15:19;;;;;;;26.17;14.02;;;;;;;11.34;71.04;102622.97;4987169;28;20034;-40
2023/01/03 11:17:56;;;;;;;23.85;13.98;;;;;;;11.69;70.73;102621.69;4982087;28;20446;-39
2023/01/03 11:20:39;;;;;;;24.40;13.68;;;;;;;11.74;69.95;102614.91;4979893;28;20057;-41
2023/01/03 11:23:18;;;;;;;25.13;12.63;;;;;;;11.68;70.14;102614.66;4982936;28;20042;-39
2023/01/03 11:26:10;;;;;;;22.63;12.68;;;;;;;11.62;69.38;102604.88;4983736;28;20153;-42
2023/01/03 11:28:53;;;;;;;23.63;13.27;;;;;;;11.43;70.85;102607.63;4980359;28;20038;-40
2023/01/03 11:31:27;;;;;;;20.75;12.57;;;;;;;11.64;69.66;102608.44;4979611;28;20045;-40
2023/01/03 11:34:25;;;;;;;;;;;;;;;11.65;69.94;102602.38;4984964;28;20046;-39
2023/01/03 11:37:21;;;;;;;21.40;12.20;;;;;;;11.93;69.21;102599.06;4963075;28;20127;-40
2023/01/03 11:40:11;;;;;;;21.80;12.38;;;;;;;12.02;69.05;102588.03;4982827;28;20108;-40
2023/01/03 11:42:42;;;;;;;24.75;12.48;;;;;;;12.10;68.82;102584.84;4984676;28;20092;-40
2023/01/03 11:45:10;;;;;;;19.70;11.70;;;;;;;11.95;68.69;102586.94;4986884;28;20100;-42
2023/01/03 11:48:03;;;;;;;19.85;11.30;;;;;;;11.78;69.41;102588.94;4983819;28;20426;-42
2023/01/03 11:50:52;;;;;;;17.45;10.60;;;;;;;11.73;69.43;102581.75;4983039;28;20038;-40
2023/01/03 11:53:46;;;;;;;15.88;9.68;;;;;;;12.05;68.75;102572.47;4983640;28;20499;-41
2023/01/03 11:56:24;;;;;;;16.27;10.00;;;;;;;12.12;67.61;102572.72;4984597;28;20345;-41
2023/01/03 11:59:21;;;;;;;16.67;9.70;;;;;;;11.90;68.33;102574.53;4987727;28;20038;-43
2023/01/03 12:02:24;;;;;;;14.60;9.13;;;;;;;12.37;67.60;102574.44;4983289;28;20054;-41
2023/01/03 12:05:27;;;;;;;15.60;9.35;;;;;;;12.45;67.20;102574.66;4983700;28;20490;-39
2023/01/03 12:08:14;;;;;;;16.33;9.45;;;;;;;12.32;67.67;102572.53;4983061;28;20066;-42
2023/01/03 12:11:01;;;;;;;17.50;9.35;;;;;;;12.16;68.21;102565.88;4983675;28;20103;-40
2023/01/03 12:13:32;;;;;;;18.25;9.75;;;;;;;12.02;68.32;102567.13;4983051;28;20043;-40
2023/01/03 12:16:07;;;;;;;17.48;9.52;;;;;;;12.14;68.71;102554.47;4987819;28;20034;-40
2023/01/03 12:18:48;;;;;;;15.70;8.65;;;;;;;12.24;67.66;102550.44;4984129;28;20142;-40
2023/01/03 12:21:30;;;;;;;16.83;8.85;;;;;;;12.27;68.11;102556.66;4985258;28;20034;-41
2023/01/03 12:24:02;;;;;;;17.52;9.07;;;;;;;12.28;67.04;102550.59;4989801;28;20045;-40
2023/01/03 12:26:29;;;;;;;15.85;8.55;;;;;;;12.45;67.29;102559.88;5002586;28;20038;-40
2023/01/03 12:29:11;;;;;;;15.45;9.02;;;;;;;12.12;68.19;102561.38;4992128;28;20137;-38
2023/01/03 12:31:52;;;;;;;14.70;8.63;;;;;;;12.15;67.96;102562.34;5002888;28;20057;-41